Time;durP1;ratioP1;P1;durP2;ratioP2;P2;SDS_P1;SDS_P2;PMS_P1;PMS_P2;Temp;Humidity;BMP_temperature;BMP_pressure;BME280_temperature;BME280_humidity;BME280_pressure;Samples;Min_cycle;Max_cycle;Signal;HPM_P1;HPM_P2
2023/05/07 00:02:03;;;;;;;8.37;4.00;;;;;;;;;;10467867;27;20360;-75
2023/05/07 00:07:04;;;;;;;10.02;4.63;;;;;;;;;;10381674;28;20048;-75
2023/05/07 00:12:04;;;;;;;8.98;5.07;;;;;;;;;;10381357;28;20041;-75
2023/05/07 00:17:05;;;;;;;14.30;5.07;;;;;;;;;;10379773;28;20029;-74
2023/05/07 00:22:05;;;;;;;10.30;4.50;;;;;;;;;;10375784;28;20410;-74
2023/05/07 00:27:05;;;;;;;9.30;5.23;;;;;;;;;;10340299;28;20087;-75
2023/05/07 00:32:05;;;;;;;10.13;5.55;;;;;;;;;;10339947;28;20074;-75
2023/05/07 00:37:07;;;;;;;12.73;5.83;;;;;;;;;;10339514;28;20488;-74
2023/05/07 00:42:08;;;;;;;14.43;5.95;;;;;;;;;;10373042;28;20027;-75
2023/05/07 00:47:08;;;;;;;9.00;6.40;;;;;;;;;;10440886;27;20480;-74
2023/05/07 00:52:13;;;;;;;13.10;8.25;;;;;;;;;;10346524;28;20102;-74
2023/05/07 00:57:13;;;;;;;6.18;4.93;;;;;;;;;;10361942;28;20033;-74
2023/05/07 01:02:13;;;;;;;6.55;4.72;;;;;;;;;;10464854;27;20044;-74
2023/05/07 01:07:14;;;;;;;11.93;5.80;;;;;;;;;;10378355;28;20540;-74
2023/05/07 01:12:14;;;;;;;6.15;4.97;;;;;;;;;;10434395;28;20036;-74
2023/05/07 01:17:15;;;;;;;8.93;5.30;;;;;;;;;;10341686;28;20153;-75
2023/05/07 01:22:18;;;;;;;9.07;5.88;;;;;;;;;;10378876;28;20049;-74
2023/05/07 01:27:18;;;;;;;18.35;6.32;;;;;;;;;;10360907;28;20741;-75
2023/05/07 01:32:23;;;;;;;11.70;6.82;;;;;;;;;;10379016;28;20018;-75
2023/05/07 01:37:24;;;;;;;8.30;5.93;;;;;;;;;;10378246;28;20017;-74
2023/05/07 01:42:24;;;;;;;9.98;6.43;;;;;;;;;;10342325;28;20076;-75
2023/05/07 01:47:25;;;;;;;12.63;7.40;;;;;;;;;;10360378;28;20022;-74
2023/05/07 01:52:27;;;;;;;16.85;8.60;;;;;;;;;;10463559;27;20425;-74
2023/05/07 01:57:27;;;;;;;15.57;9.23;;;;;;;;;;10360385;28;20029;-74
2023/05/07 02:02:28;;;;;;;14.73;8.45;;;;;;;;;;10340265;28;20504;-75
2023/05/07 02:07:28;;;;;;;12.87;8.43;;;;;;;;;;10350706;28;20033;-75
2023/05/07 02:12:28;;;;;;;12.90;8.98;;;;;;;;;;10358368;28;20260;-75
2023/05/07 02:17:31;;;;;;;12.83;9.30;;;;;;;;;;10462728;27;20376;-74
2023/05/07 02:22:31;;;;;;;15.90;9.30;;;;;;;;;;10462169;27;20445;-74
2023/05/07 02:27:32;;;;;;;17.02;9.63;;;;;;;;;;10377267;28;20108;-75
2023/05/07 02:32:32;;;;;;;12.63;9.60;;;;;;;;;;10377673;28;20484;-74
2023/05/07 02:37:32;;;;;;;16.13;9.73;;;;;;;;;;10508250;28;20022;-75
2023/05/07 02:42:32;;;;;;;17.58;11.45;;;;;;;;;;10349873;28;20032;-75
2023/05/07 02:47:33;;;;;;;14.57;10.27;;;;;;;;;;10384346;28;20453;-74
2023/05/07 02:52:33;;;;;;;16.23;10.68;;;;;;;;;;10366055;28;20408;-74
2023/05/07 02:57:33;;;;;;;18.83;10.40;;;;;;;;;;10366313;28;20029;-74
2023/05/07 03:02:33;;;;;;;18.37;9.77;;;;;;;;;;10383339;28;20032;-74
2023/05/07 03:07:34;;;;;;;18.07;11.13;;;;;;;;;;10384071;28;20070;-75
2023/05/07 03:12:35;;;;;;;24.25;12.20;;;;;;;;;;10383094;28;20033;-75
2023/05/07 03:17:35;;;;;;;24.15;14.65;;;;;;;;;;10366031;28;20024;-75
2023/05/07 03:22:36;;;;;;;26.73;13.68;;;;;;;;;;10527572;28;20051;-75
2023/05/07 03:27:36;;;;;;;28.40;14.20;;;;;;;;;;10453053;28;20468;-75
2023/05/07 03:32:36;;;;;;;24.63;14.87;;;;;;;;;;10364628;28;20026;-75
2023/05/07 03:37:37;;;;;;;23.85;12.93;;;;;;;;;;10368080;28;20076;-73
2023/05/07 03:42:37;;;;;;;25.40;14.15;;;;;;;;;;10371547;28;20048;-74
2023/05/07 03:47:38;;;;;;;25.43;14.10;;;;;;;;;;10358428;28;20049;-74
2023/05/07 03:52:38;;;;;;;26.00;15.05;;;;;;;;;;10340628;28;20025;-74
2023/05/07 03:57:38;;;;;;;29.13;15.67;;;;;;;;;;10365240;28;20508;-75
2023/05/07 04:02:39;;;;;;;21.35;13.38;;;;;;;;;;10383775;28;20483;-75
2023/05/07 04:07:39;;;;;;;22.43;14.50;;;;;;;;;;10342666;28;20078;-74
2023/05/07 04:12:39;;;;;;;29.30;14.43;;;;;;;;;;10364635;28;20020;-74
2023/05/07 04:17:41;;;;;;;22.83;13.50;;;;;;;;;;10342700;28;20532;-74
2023/05/07 04:22:41;;;;;;;25.90;13.63;;;;;;;;;;10370752;28;20104;-74
2023/05/07 04:27:41;;;;;;;24.37;13.60;;;;;;;;;;10356757;28;20108;-75
2023/05/07 04:32:42;;;;;;;23.87;12.93;;;;;;;;;;10357083;28;20794;-75
2023/05/07 04:37:42;;;;;;;23.37;13.70;;;;;;;;;;10381598;28;20023;-74
2023/05/07 04:42:42;;;;;;;27.53;12.20;;;;;;;;;;10331588;28;20048;-76
2023/05/07 04:47:43;;;;;;;27.30;11.87;;;;;;;;;;10293641;28;20068;-73
2023/05/07 04:52:43;;;;;;;17.97;10.33;;;;;;;;;;10303211;28;20030;-74
2023/05/07 04:57:43;;;;;;;13.82;9.77;;;;;;;;;;10292389;28;20064;-74
2023/05/07 05:02:44;;;;;;;17.75;10.55;;;;;;;;;;10310157;28;20044;-74
2023/05/07 05:07:44;;;;;;;19.00;11.50;;;;;;;;;;10275631;28;20017;-74
2023/05/07 05:12:44;;;;;;;22.90;10.30;;;;;;;;;;10290648;28;20285;-73
2023/05/07 05:17:45;;;;;;;19.65;10.00;;;;;;;;;;10292365;28;20492;-77
2023/05/07 05:22:45;;;;;;;19.80;8.97;;;;;;;;;;10291200;28;20565;-78
2023/05/07 05:27:45;;;;;;;16.98;9.10;;;;;;;;;;10292320;28;20044;-76
2023/05/07 05:32:46;;;;;;;17.73;9.77;;;;;;;;;;10292518;28;20038;-77
2023/05/07 05:37:46;;;;;;;19.27;10.03;;;;;;;;;;10287878;28;20026;-75
2023/05/07 05:42:46;;;;;;;15.07;9.38;;;;;;;;;;10332991;28;20468;-73
2023/05/07 05:47:47;;;;;;;15.88;9.48;;;;;;;;;;10363853;28;20104;-77
2023/05/07 05:52:47;;;;;;;17.20;8.70;;;;;;;;;;10361336;28;20078;-75
2023/05/07 05:57:48;;;;;;;13.30;7.40;;;;;;;;;;10458022;27;20037;-71
2023/05/07 06:02:48;;;;;;;14.68;9.32;;;;;;;;;;10352486;28;20038;-76
2023/05/07 06:07:48;;;;;;;13.40;6.90;;;;;;;;;;10369256;28;20029;-82
2023/05/07 06:12:49;;;;;;;12.57;6.93;;;;;;;;;;10370362;28;20061;-75
2023/05/07 06:17:49;;;;;;;12.77;7.63;;;;;;;;;;10362952;28;20761;-75
2023/05/07 06:22:49;;;;;;;13.67;7.80;;;;;;;;;;10377307;28;20083;-75
2023/05/07 06:27:51;;;;;;;12.48;7.38;;;;;;;;;;10376176;28;20058;-75
2023/05/07 06:32:51;;;;;;;15.97;6.97;;;;;;;;;;10294393;28;20536;-75
2023/05/07 06:37:52;;;;;;;12.57;6.90;;;;;;;;;;10284021;28;20098;-74
2023/05/07 06:42:52;;;;;;;9.80;6.97;;;;;;;;;;10326849;28;20458;-75
2023/05/07 06:47:52;;;;;;;9.68;6.60;;;;;;;;;;10313388;28;20108;-75
2023/05/07 06:52:53;;;;;;;16.65;7.25;;;;;;;;;;10309159;28;20512;-74
2023/05/07 06:57:57;;;;;;;8.10;5.78;;;;;;;;;;10312908;28;20034;-75
2023/05/07 07:02:59;;;;;;;13.40;6.60;;;;;;;;;;10310417;28;20033;-75
2023/05/07 07:07:59;;;;;;;11.95;6.22;;;;;;;;;;10318586;28;20194;-74
2023/05/07 07:13:00;;;;;;;11.55;6.60;;;;;;;;;;10311361;28;20101;-76
2023/05/07 07:18:00;;;;;;;11.23;6.43;;;;;;;;;;10408152;28;20029;-81
2023/05/07 07:23:00;;;;;;;11.77;5.57;;;;;;;;;;10326802;28;20039;-72
2023/05/07 07:28:01;;;;;;;9.80;5.45;;;;;;;;;;10321774;28;20041;-76
2023/05/07 07:33:03;;;;;;;12.00;5.60;;;;;;;;;;10329814;28;20026;-80
2023/05/07 07:38:03;;;;;;;10.52;5.03;;;;;;;;;;10324140;28;20026;-73
2023/05/07 07:43:04;;;;;;;8.93;5.00;;;;;;;;;;10325809;28;20459;-72
2023/05/07 07:48:05;;;;;;;10.60;5.07;;;;;;;;;;10327994;28;20966;-73
2023/05/07 07:53:05;;;;;;;14.55;6.57;;;;;;;;;;10329563;28;20354;-73
2023/05/07 07:58:05;;;;;;;9.70;4.97;;;;;;;;;;10326687;28;20577;-73
2023/05/07 08:03:09;;;;;;;15.13;5.00;;;;;;;;;;10327771;28;20022;-81
2023/05/07 08:08:09;;;;;;;7.90;4.70;;;;;;;;;;10330820;28;20466;-73
2023/05/07 08:13:09;;;;;;;8.30;5.00;;;;;;;;;;10326289;28;20058;-72
2023/05/07 08:18:10;;;;;;;8.50;4.10;;;;;;;;;;10326149;28;20113;-78
2023/05/07 08:23:10;;;;;;;9.50;4.93;;;;;;;;;;10330322;28;20046;-79
2023/05/07 08:28:11;;;;;;;15.17;4.63;;;;;;;;;;10331864;28;20018;-83
2023/05/07 08:33:11;;;;;;;10.60;4.60;;;;;;;;;;10332643;28;20100;-78
2023/05/07 08:38:11;;;;;;;9.40;4.78;;;;;;;;;;10340265;28;20025;-79
2023/05/07 08:43:14;;;;;;;7.07;3.47;;;;;;;;;;10310101;28;20037;-74
2023/05/07 08:48:16;;;;;;;6.05;3.60;;;;;;;;;;10322198;28;20014;-76
2023/05/07 08:53:16;;;;;;;5.25;3.60;;;;;;;;;;10307228;28;20026;-74
2023/05/07 08:58:16;;;;;;;4.90;3.30;;;;;;;;;;10328265;28;20148;-76
2023/05/07 09:03:17;;;;;;;7.50;3.67;;;;;;;;;;10311039;28;20060;-78
2023/05/07 09:08:24;;;;;;;4.15;2.65;;;;;;;;;;10325474;28;20018;-80
2023/05/07 09:13:24;;;;;;;6.50;2.88;;;;;;;;;;10312436;28;20029;-75
2023/05/07 09:18:25;;;;;;;10.30;2.60;;;;;;;;;;10324916;28;20826;-77
2023/05/07 09:23:25;;;;;;;14.98;3.30;;;;;;;;;;10324018;28;20501;-75
2023/05/07 09:28:26;;;;;;;6.05;2.90;;;;;;;;;;10310804;28;20029;-76
2023/05/07 09:33:29;;;;;;;6.40;2.45;;;;;;;;;;10332908;28;20028;-81
2023/05/07 09:38:29;;;;;;;5.85;2.55;;;;;;;;;;10307157;28;20053;-74
2023/05/07 09:43:37;;;;;;;4.43;2.50;;;;;;;;;;10315401;28;20547;-83
2023/05/07 09:48:41;;;;;;;13.27;2.38;;;;;;;;;;10329312;28;20068;-83
2023/05/07 09:53:43;;;;;;;4.85;2.47;;;;;;;;;;10334155;28;20029;-83
2023/05/07 09:58:43;;;;;;;5.18;2.33;;;;;;;;;;10319835;28;20030;-83
2023/05/07 10:03:47;;;;;;;5.85;2.45;;;;;;;;;;10337856;28;20029;-86
2023/05/07 10:08:48;;;;;;;4.63;2.20;;;;;;;;;;10314611;28;20373;-80
2023/05/07 10:13:49;;;;;;;8.43;2.17;;;;;;;;;;10251667;28;20030;-76
2023/05/07 10:18:49;;;;;;;3.20;2.20;;;;;;;;;;10465368;22;20057;-77
2023/05/07 10:39:34;;;;;;;4.78;2.58;;;;;;;;;;11012156;22;19929;-76
2023/05/07 10:44:35;;;;;;;2.95;2.20;;;;;;;;;;10384670;28;20037;-77
2023/05/07 10:49:36;;;;;;;6.60;2.65;;;;;;;;;;10383389;28;20465;-76
2023/05/07 10:54:36;;;;;;;2.58;1.85;;;;;;;;;;10388408;28;20515;-75
2023/05/07 10:59:41;;;;;;;3.30;1.90;;;;;;;;;;10394262;28;20029;-75
2023/05/07 11:04:41;;;;;;;5.13;2.00;;;;;;;;;;10384027;28;20025;-76
2023/05/07 11:09:51;;;;;;;6.17;2.60;;;;;;;;;;10400597;28;20035;-76
2023/05/07 11:14:53;;;;;;;4.80;2.63;;;;;;;;;;10404416;28;20043;-85
2023/05/07 11:19:55;;;;;;;5.70;2.88;;;;;;;;;;10386734;28;20013;-85
2023/05/07 11:24:56;;;;;;;5.05;3.28;;;;;;;;;;10377571;28;20716;-81
2023/05/07 11:29:57;;;;;;;7.93;4.35;;;;;;;;;;10360495;28;20032;-80
2023/05/07 11:34:59;;;;;;;4.13;3.40;;;;;;;;;;10373661;28;20079;-80
2023/05/07 11:40:07;;;;;;;7.40;3.45;;;;;;;;;;10383548;28;20072;-86
2023/05/07 11:45:08;;;;;;;7.55;3.47;;;;;;;;;;10367576;28;20029;-80
2023/05/07 11:50:10;;;;;;;3.30;3.00;;;;;;;;;;10365801;28;20029;-76
2023/05/07 11:55:10;;;;;;;5.57;3.45;;;;;;;;;;10365918;28;20028;-79
2023/05/07 12:00:11;;;;;;;5.70;3.75;;;;;;;;;;10350286;28;20509;-81
2023/05/07 12:05:12;;;;;;;6.72;3.72;;;;;;;;;;10359805;28;20032;-79
2023/05/07 12:10:13;;;;;;;5.93;3.17;;;;;;;;;;10370548;28;20021;-81
2023/05/07 12:15:22;;;;;;;9.63;3.92;;;;;;;;;;10379180;28;20021;-82
2023/05/07 12:20:23;;;;;;;4.30;3.20;;;;;;;;;;10403874;28;20086;-75
2023/05/07 12:25:23;;;;;;;7.90;3.97;;;;;;;;;;10406650;28;20032;-87
2023/05/07 12:30:23;;;;;;;8.13;3.97;;;;;;;;;;10394397;28;20025;-73
2023/05/07 12:35:28;;;;;;;5.07;3.87;;;;;;;;;;10410747;28;20418;-76
2023/05/07 12:40:38;;;;;;;6.95;3.70;;;;;;;;;;10410362;28;20053;-83
2023/05/07 12:45:38;;;;;;;5.53;3.25;;;;;;;;;;10402379;28;20503;-79
2023/05/07 12:50:39;;;;;;;4.85;3.80;;;;;;;;;;10400138;28;20091;-88
2023/05/07 12:55:41;;;;;;;5.85;3.50;;;;;;;;;;10408828;28;20654;-75
2023/05/07 13:00:42;;;;;;;6.72;3.28;;;;;;;;;;10396951;28;20029;-79
2023/05/07 13:05:43;;;;;;;4.28;3.15;;;;;;;;;;10402341;28;20460;-72
2023/05/07 13:10:43;;;;;;;5.35;3.22;;;;;;;;;;10391526;28;20072;-74
2023/05/07 13:15:43;;;;;;;6.80;4.38;;;;;;;;;;10392987;28;20381;-73
2023/05/07 13:20:44;;;;;;;5.18;2.70;;;;;;;;;;10401442;28;20029;-71
2023/05/07 13:25:44;;;;;;;3.00;2.30;;;;;;;;;;10396579;28;20078;-75
2023/05/07 13:30:44;;;;;;;2.40;2.10;;;;;;;;;;10384602;28;20483;-74
2023/05/07 13:35:44;;;;;;;4.40;2.53;;;;;;;;;;10397821;28;20112;-78
2023/05/07 13:40:45;;;;;;;5.43;3.60;;;;;;;;;;10388060;28;20044;-73
2023/05/07 13:45:45;;;;;;;2.97;2.50;;;;;;;;;;10395572;28;20483;-75
2023/05/07 13:50:46;;;;;;;3.63;2.73;;;;;;;;;;10400321;28;20430;-74
2023/05/07 13:55:46;;;;;;;6.10;2.30;;;;;;;;;;10404594;28;20094;-79
2023/05/07 14:00:46;;;;;;;6.05;2.70;;;;;;;;;;10404362;28;20025;-80
2023/05/07 14:05:47;;;;;;;5.23;2.73;;;;;;;;;;10399617;28;20021;-79
2023/05/07 14:10:47;;;;;;;10.27;3.05;;;;;;;;;;10398687;28;20032;-79
2023/05/07 14:15:48;;;;;;;3.43;2.67;;;;;;;;;;10393028;28;20447;-81
2023/05/07 14:20:49;;;;;;;3.30;2.65;;;;;;;;;;10382930;28;20056;-81
2023/05/07 14:25:49;;;;;;;4.93;2.23;;;;;;;;;;10401478;28;20036;-81
2023/05/07 14:30:50;;;;;;;3.88;2.28;;;;;;;;;;10399687;28;20147;-81
2023/05/07 14:35:50;;;;;;;6.75;2.65;;;;;;;;;;10401394;28;20063;-82
2023/05/07 14:40:52;;;;;;;3.07;2.40;;;;;;;;;;10391906;28;20135;-82
2023/05/07 14:45:52;;;;;;;6.22;2.20;;;;;;;;;;10397353;28;20033;-82
2023/05/07 14:50:52;;;;;;;4.03;2.83;;;;;;;;;;10392830;28;20499;-81
2023/05/07 14:55:52;;;;;;;3.95;2.58;;;;;;;;;;10388435;28;20456;-79
2023/05/07 15:00:53;;;;;;;6.45;3.00;;;;;;;;;;10402437;28;20052;-79
2023/05/07 15:05:53;;;;;;;6.15;3.13;;;;;;;;;;10392483;28;20025;-72
2023/05/07 15:10:54;;;;;;;3.20;2.90;;;;;;;;;;10398290;28;20082;-72
2023/05/07 15:15:55;;;;;;;4.22;2.65;;;;;;;;;;10393123;28;20510;-76
2023/05/07 15:20:56;;;;;;;3.77;2.67;;;;;;;;;;10394163;28;20029;-73
2023/05/07 15:25:56;;;;;;;5.80;2.65;;;;;;;;;;10405810;28;20038;-75
2023/05/07 15:30:57;;;;;;;4.35;3.17;;;;;;;;;;10398528;28;20474;-74
2023/05/07 15:35:58;;;;;;;4.68;3.20;;;;;;;;;;10397724;28;20037;-75
2023/05/07 15:40:59;;;;;;;3.83;2.67;;;;;;;;;;10399775;28;20025;-74
2023/05/07 15:46:00;;;;;;;6.88;2.63;;;;;;;;;;10398212;28;20021;-72
2023/05/07 15:51:00;;;;;;;4.25;2.72;;;;;;;;;;10403187;28;20019;-70
2023/05/07 15:56:00;;;;;;;5.75;2.28;;;;;;;;;;10398624;28;20025;-70
2023/05/07 16:01:01;;;;;;;3.60;2.72;;;;;;;;;;10405773;28;20541;-75
2023/05/07 16:06:01;;;;;;;5.00;2.47;;;;;;;;;;10401187;28;20033;-76
2023/05/07 16:11:02;;;;;;;4.35;2.30;;;;;;;;;;10398457;28;20021;-75
2023/05/07 16:16:02;;;;;;;5.32;2.72;;;;;;;;;;10389463;28;20022;-72
2023/05/07 16:21:02;;;;;;;7.33;2.50;;;;;;;;;;10401856;28;20420;-72
2023/05/07 16:26:03;;;;;;;4.40;2.65;;;;;;;;;;10405393;28;20032;-72
2023/05/07 16:31:06;;;;;;;9.20;2.78;;;;;;;;;;10395538;28;20059;-74
2023/05/07 16:36:06;;;;;;;10.07;4.47;;;;;;;;;;10400824;28;20028;-71
2023/05/07 16:41:06;;;;;;;6.80;3.87;;;;;;;;;;10406044;28;20086;-72
2023/05/07 16:46:07;;;;;;;4.63;2.60;;;;;;;;;;10398702;28;20287;-75
2023/05/07 16:51:08;;;;;;;9.13;3.25;;;;;;;;;;10374710;28;20456;-78
2023/05/07 16:56:08;;;;;;;4.70;2.90;;;;;;;;;;10329735;28;20494;-72
2023/05/07 17:01:10;;;;;;;5.13;2.97;;;;;;;;;;10342816;28;20021;-74
2023/05/07 17:06:13;;;;;;;5.78;2.80;;;;;;;;;;10341141;28;21506;-82
2023/05/07 17:11:22;;;;;;;4.93;2.47;;;;;;;;;;10343097;28;20540;-82
2023/05/07 17:16:23;;;;;;;7.18;3.13;;;;;;;;;;10367146;28;20059;-79
2023/05/07 17:21:23;;;;;;;8.57;3.35;;;;;;;;;;10392010;28;20032;-82
2023/05/07 17:26:26;;;;;;;10.13;3.67;;;;;;;;;;10403325;28;20123;-79
2023/05/07 17:31:27;;;;;;;8.05;3.33;;;;;;;;;;10400464;28;20264;-79
2023/05/07 17:36:27;;;;;;;5.57;3.30;;;;;;;;;;10395522;28;20044;-77
2023/05/07 17:41:27;;;;;;;7.50;3.53;;;;;;;;;;10389070;28;20028;-86
2023/05/07 17:46:28;;;;;;;10.88;3.85;;;;;;;;;;10391285;28;20021;-81
2023/05/07 17:51:34;;;;;;;11.93;3.53;;;;;;;;;;10402151;28;20020;-84
2023/05/07 17:56:36;;;;;;;7.40;3.30;;;;;;;;;;10392727;28;20025;-79
2023/05/07 18:01:37;;;;;;;6.68;3.65;;;;;;;;;;10402303;28;20440;-80
2023/05/07 18:06:38;;;;;;;5.85;3.28;;;;;;;;;;10388924;28;20021;-84
2023/05/07 18:11:39;;;;;;;9.32;3.60;;;;;;;;;;10394812;28;20025;-79
2023/05/07 18:16:40;;;;;;;7.75;3.40;;;;;;;;;;10385982;28;20029;-74
2023/05/07 18:21:40;;;;;;;6.70;3.72;;;;;;;;;;10398672;28;20065;-74
2023/05/07 18:26:40;;;;;;;5.63;3.60;;;;;;;;;;10392969;28;20754;-74
2023/05/07 18:31:40;;;;;;;10.30;4.57;;;;;;;;;;10396020;28;20349;-74
2023/05/07 18:36:41;;;;;;;5.22;3.50;;;;;;;;;;10401941;28;20045;-74
2023/05/07 18:41:41;;;;;;;7.25;3.50;;;;;;;;;;10402342;28;20029;-76
2023/05/07 18:46:44;;;;;;;7.73;3.80;;;;;;;;;;10398031;28;20021;-74
2023/05/07 18:51:44;;;;;;;7.85;4.20;;;;;;;;;;10398380;28;20013;-77
2023/05/07 18:56:44;;;;;;;7.83;4.10;;;;;;;;;;10396184;28;20022;-76
2023/05/07 19:01:45;;;;;;;7.43;4.13;;;;;;;;;;10400675;28;20040;-75
2023/05/07 19:06:46;;;;;;;6.95;4.07;;;;;;;;;;10406585;28;20048;-78
2023/05/07 19:11:46;;;;;;;11.17;4.60;;;;;;;;;;10385799;28;20017;-78
2023/05/07 19:16:46;;;;;;;6.20;3.75;;;;;;;;;;10386397;28;20032;-81
2023/05/07 19:21:47;;;;;;;7.13;3.88;;;;;;;;;;10388441;28;20804;-78
2023/05/07 19:26:47;;;;;;;8.00;4.28;;;;;;;;;;10394441;28;20033;-72
2023/05/07 19:31:47;;;;;;;6.63;3.65;;;;;;;;;;10406831;28;20791;-72
2023/05/07 19:36:48;;;;;;;6.00;3.37;;;;;;;;;;10407381;28;20522;-73
2023/05/07 19:41:48;;;;;;;4.93;3.57;;;;;;;;;;10386015;28;20040;-74
2023/05/07 19:46:48;;;;;;;7.38;3.72;;;;;;;;;;10404867;28;20064;-73
2023/05/07 19:51:49;;;;;;;9.32;3.90;;;;;;;;;;10395437;28;20072;-73
2023/05/07 19:56:49;;;;;;;4.80;3.60;;;;;;;;;;10404001;28;20460;-74
2023/05/07 20:01:49;;;;;;;6.07;3.50;;;;;;;;;;10401749;28;20457;-74
2023/05/07 20:06:49;;;;;;;6.30;3.60;;;;;;;;;;10392328;28;20436;-73
2023/05/07 20:11:50;;;;;;;7.60;4.00;;;;;;;;;;10402449;28;20029;-74
2023/05/07 20:16:50;;;;;;;7.50;3.92;;;;;;;;;;10402006;28;20094;-73
2023/05/07 20:21:51;;;;;;;5.63;3.42;;;;;;;;;;10403807;28;20025;-81
2023/05/07 20:26:53;;;;;;;5.72;3.78;;;;;;;;;;10410172;28;20052;-75
2023/05/07 20:31:53;;;;;;;7.95;3.53;;;;;;;;;;10402495;28;20024;-74
2023/05/07 20:36:53;;;;;;;5.95;3.38;;;;;;;;;;10382957;28;20048;-74
2023/05/07 20:41:53;;;;;;;6.10;3.28;;;;;;;;;;10402436;28;20083;-74
2023/05/07 20:46:54;;;;;;;7.65;3.60;;;;;;;;;;10397089;28;20028;-70
2023/05/07 20:51:54;;;;;;;6.07;3.72;;;;;;;;;;10421453;28;20020;-73
2023/05/07 20:56:55;;;;;;;6.65;4.20;;;;;;;;;;10423699;28;20037;-73
2023/05/07 21:01:56;;;;;;;6.03;3.40;;;;;;;;;;10401761;28;20037;-76
2023/05/07 21:06:56;;;;;;;8.10;3.42;;;;;;;;;;10424649;28;20033;-75
2023/05/07 21:11:57;;;;;;;9.02;4.00;;;;;;;;;;10425120;28;20048;-75
2023/05/07 21:16:59;;;;;;;5.70;2.95;;;;;;;;;;10424033;28;20360;-75
2023/05/07 21:21:59;;;;;;;7.00;3.97;;;;;;;;;;10427252;28;20055;-80
2023/05/07 21:27:00;;;;;;;5.85;3.47;;;;;;;;;;10425956;28;20743;-79
2023/05/07 21:32:02;;;;;;;9.30;3.63;;;;;;;;;;10425550;28;20056;-79
2023/05/07 21:37:02;;;;;;;6.80;3.60;;;;;;;;;;10437117;28;20048;-80
2023/05/07 21:42:03;;;;;;;7.00;3.10;;;;;;;;;;10425992;28;20066;-80
2023/05/07 21:47:03;;;;;;;10.43;3.53;;;;;;;;;;10425661;28;20484;-79
2023/05/07 21:52:03;;;;;;;7.72;3.58;;;;;;;;;;10408735;28;20551;-79
2023/05/07 21:57:04;;;;;;;5.82;2.95;;;;;;;;;;10425065;28;20383;-79
2023/05/07 22:02:04;;;;;;;5.33;2.90;;;;;;;;;;10426063;28;20068;-80
2023/05/07 22:07:05;;;;;;;6.30;2.85;;;;;;;;;;10425565;28;20373;-80
2023/05/07 22:12:05;;;;;;;4.93;3.15;;;;;;;;;;10423996;28;20788;-79
2023/05/07 22:17:05;;;;;;;11.18;3.63;;;;;;;;;;10424980;28;20029;-79
2023/05/07 22:22:06;;;;;;;7.53;2.58;;;;;;;;;;10424275;28;20479;-80
2023/05/07 22:27:06;;;;;;;3.53;2.58;;;;;;;;;;10405898;28;20411;-78
2023/05/07 22:32:06;;;;;;;5.13;2.83;;;;;;;;;;10405086;28;20032;-78
2023/05/07 22:37:07;;;;;;;10.32;3.05;;;;;;;;;;10423076;28;20387;-79
2023/05/07 22:42:07;;;;;;;6.45;2.85;;;;;;;;;;10424137;28;20037;-78
2023/05/07 22:47:07;;;;;;;4.82;2.53;;;;;;;;;;10405308;28;20063;-78
2023/05/07 22:52:07;;;;;;;5.20;3.00;;;;;;;;;;10423171;28;20021;-78
2023/05/07 22:57:08;;;;;;;4.85;2.80;;;;;;;;;;10425729;28;20498;-78
2023/05/07 23:02:08;;;;;;;4.45;3.33;;;;;;;;;;10430968;28;20722;-77
2023/05/07 23:07:08;;;;;;;5.30;2.35;;;;;;;;;;10430372;28;20072;-78
2023/05/07 23:12:08;;;;;;;4.38;2.67;;;;;;;;;;10425569;28;20483;-77
2023/05/07 23:17:09;;;;;;;5.90;2.77;;;;;;;;;;10408530;28;20491;-78
2023/05/07 23:22:09;;;;;;;4.97;2.63;;;;;;;;;;10429036;28;20063;-78
2023/05/07 23:27:10;;;;;;;5.07;2.40;;;;;;;;;;10431139;28;20016;-78
2023/05/07 23:32:10;;;;;;;5.73;2.30;;;;;;;;;;10429427;28;20032;-77
2023/05/07 23:37:10;;;;;;;9.45;2.90;;;;;;;;;;10429194;28;20082;-78
2023/05/07 23:42:10;;;;;;;4.50;2.53;;;;;;;;;;10430186;28;20025;-78
2023/05/07 23:47:11;;;;;;;5.43;3.83;;;;;;;;;;10429046;28;20056;-78
2023/05/07 23:52:11;;;;;;;4.53;2.47;;;;;;;;;;10429036;28;20701;-78
2023/05/07 23:57:11;;;;;;;5.45;3.03;;;;;;;;;;10429032;28;20020;-78
